createdAt,value
2023-03-02T00:00:24.238Z,21.71
2023-03-02T00:02:51.207Z,21.81
2023-03-02T00:05:18.250Z,21.67
2023-03-02T00:07:45.005Z,21.91
2023-03-02T00:10:12.975Z,21.66
2023-03-02T00:12:39.746Z,21.76
2023-03-02T00:15:07.873Z,21.77
2023-03-02T00:17:34.405Z,21.86
2023-03-02T00:20:00.928Z,21.70
2023-03-02T00:22:27.432Z,21.82
2023-03-02T00:24:54.000Z,21.75
2023-03-02T00:27:21.815Z,21.65
2023-03-02T00:29:48.372Z,21.56
2023-03-02T00:32:15.009Z,21.62
2023-03-02T00:34:41.588Z,21.58
2023-03-02T00:37:08.290Z,21.33
2023-03-02T00:39:34.881Z,21.50
2023-03-02T00:42:01.443Z,21.69
2023-03-02T00:44:29.252Z,21.89
2023-03-02T00:46:56.268Z,22.10
2023-03-02T00:49:23.166Z,22.13
2023-03-02T00:51:49.663Z,22.17
2023-03-02T00:54:16.313Z,22.22
2023-03-02T00:56:43.299Z,22.31
2023-03-02T00:59:11.667Z,22.40
2023-03-02T01:01:39.454Z,22.45
2023-03-02T01:04:06.157Z,22.54
2023-03-02T01:06:33.046Z,22.61
2023-03-02T01:08:59.754Z,22.63
2023-03-02T01:11:26.229Z,22.69
2023-03-02T01:13:52.688Z,22.70
2023-03-02T01:16:19.273Z,22.97
2023-03-02T01:18:47.360Z,22.77
2023-03-02T01:21:15.734Z,22.67
2023-03-02T01:23:42.670Z,22.74
2023-03-02T01:26:09.385Z,22.73
2023-03-02T01:28:36.181Z,22.97
2023-03-02T01:31:02.704Z,23.00
2023-03-02T01:33:30.344Z,22.95
2023-03-02T01:35:58.274Z,23.01
2023-03-02T01:38:24.896Z,23.02
2023-03-02T01:40:51.530Z,23.14
2023-03-02T01:43:18.076Z,23.02
2023-03-02T01:45:49.029Z,22.96
2023-03-02T01:48:18.421Z,23.04
2023-03-02T01:50:45.297Z,23.04
2023-03-02T01:53:15.757Z,23.05
2023-03-02T01:55:43.206Z,23.11
2023-03-02T01:58:11.936Z,23.18
2023-03-02T02:00:39.956Z,23.29
2023-03-02T02:03:10.790Z,23.21
2023-03-02T02:05:40.453Z,23.28
2023-03-02T02:08:07.724Z,23.18
2023-03-02T02:10:36.433Z,23.22
2023-03-02T02:13:02.941Z,23.19
2023-03-02T02:15:29.926Z,23.31
2023-03-02T02:17:56.450Z,23.44
2023-03-02T02:20:30.610Z,23.31
2023-03-02T02:23:14.110Z,23.27
2023-03-02T02:25:47.927Z,23.42
2023-03-02T02:28:18.626Z,23.55
2023-03-02T02:30:47.474Z,23.53
2023-03-02T02:33:17.232Z,23.40
2023-03-02T02:35:45.671Z,23.54
2023-03-02T02:38:15.752Z,23.32
2023-03-02T02:40:48.075Z,23.41
2023-03-02T02:43:19.221Z,23.42
2023-03-02T02:45:47.992Z,23.31
2023-03-02T02:48:18.401Z,23.40
2023-03-02T02:50:46.740Z,23.43
2023-03-02T02:53:18.170Z,23.46
2023-03-02T02:55:47.750Z,23.68
2023-03-02T02:58:25.409Z,23.54
2023-03-02T03:00:52.174Z,23.64
2023-03-02T03:03:26.984Z,23.60
2023-03-02T03:05:53.505Z,23.60
2023-03-02T03:08:44.745Z,23.53
2023-03-02T03:11:12.987Z,23.63
2023-03-02T03:13:43.983Z,23.73
2023-03-02T03:16:15.235Z,23.63
2023-03-02T03:18:44.701Z,23.48
2023-03-02T03:21:11.393Z,23.45
2023-03-02T03:23:38.143Z,23.69
2023-03-02T03:26:05.652Z,23.79
2023-03-02T03:28:33.066Z,23.78
2023-03-02T03:31:01.262Z,23.89
2023-03-02T03:33:27.870Z,23.65
2023-03-02T03:35:54.581Z,23.53
2023-03-02T03:38:21.165Z,23.51
2023-03-02T03:40:47.720Z,23.61
2023-03-02T03:43:14.316Z,23.57
2023-03-02T03:45:41.055Z,23.83
2023-03-02T03:48:09.260Z,23.85
2023-03-02T03:50:36.152Z,23.84
2023-03-02T03:53:03.887Z,23.92
2023-03-02T03:55:30.812Z,23.63
2023-03-02T03:57:57.331Z,23.86
2023-03-02T04:00:24.269Z,23.67
2023-03-02T04:02:51.018Z,23.73
2023-03-02T04:05:19.177Z,23.71
2023-03-02T04:07:45.934Z,23.83
2023-03-02T04:10:12.522Z,23.83
2023-03-02T04:12:40.856Z,23.85
2023-03-02T04:15:09.422Z,23.91
2023-03-02T04:17:35.996Z,23.81
2023-03-02T04:20:03.906Z,23.96
2023-03-02T04:22:31.864Z,23.87
2023-03-02T04:24:58.613Z,23.75
2023-03-02T04:27:25.620Z,23.84
2023-03-02T04:29:52.505Z,24.05
2023-03-02T04:32:19.615Z,23.97
2023-03-02T04:34:46.491Z,23.95
2023-03-02T04:37:13.152Z,23.97
2023-03-02T04:39:40.999Z,23.92
2023-03-02T04:42:07.609Z,23.97
2023-03-02T04:44:34.127Z,24.11
2023-03-02T04:47:00.726Z,23.93
2023-03-02T04:49:27.262Z,23.97
2023-03-02T04:51:53.757Z,23.93
2023-03-02T04:54:22.778Z,23.92
2023-03-02T04:56:50.860Z,23.82
2023-03-02T04:59:18.830Z,24.13
2023-03-02T05:01:45.359Z,24.05
2023-03-02T05:04:13.388Z,23.88
2023-03-02T05:06:40.239Z,23.76
2023-03-02T05:09:07.188Z,23.67
2023-03-02T05:11:34.413Z,23.79
2023-03-02T05:14:04.608Z,23.68
2023-03-02T05:16:33.781Z,23.74
2023-03-02T05:19:01.857Z,23.77
2023-03-02T05:21:28.673Z,23.69
2023-03-02T05:23:55.287Z,23.79
2023-03-02T05:26:22.598Z,23.67
2023-03-02T05:28:49.171Z,23.68
2023-03-02T05:31:20.797Z,23.72
2023-03-02T05:33:47.385Z,23.69
2023-03-02T05:36:13.977Z,23.70
2023-03-02T05:38:40.594Z,23.61
2023-03-02T05:41:08.405Z,22.52
2023-03-02T05:43:34.960Z,21.54
2023-03-02T05:46:01.607Z,21.47
2023-03-02T05:48:30.273Z,22.16
2023-03-02T05:50:56.953Z,22.70
2023-03-02T05:53:23.857Z,22.68
2023-03-02T05:55:51.459Z,21.96
2023-03-02T05:58:19.829Z,22.76
2023-03-02T06:00:47.605Z,22.71
2023-03-02T06:03:14.486Z,22.39
2023-03-02T06:05:42.432Z,22.31
2023-03-02T06:08:09.586Z,22.30
2023-03-02T06:10:36.445Z,22.24
2023-03-02T06:13:03.198Z,22.55
2023-03-02T06:15:29.778Z,23.01
2023-03-02T06:17:56.430Z,22.98
2023-03-02T06:20:23.657Z,23.13
2023-03-02T06:22:51.686Z,23.04
2023-03-02T06:25:20.997Z,23.07
2023-03-02T06:27:47.828Z,23.11
2023-03-02T06:30:16.299Z,23.19
2023-03-02T06:32:42.956Z,23.27
2023-03-02T06:35:10.802Z,23.22
2023-03-02T06:37:37.445Z,23.18
2023-03-02T06:40:08.284Z,23.29
2023-03-02T06:42:34.761Z,23.17
2023-03-02T06:45:01.342Z,23.13
2023-03-02T06:47:27.963Z,23.26
2023-03-02T06:49:54.506Z,23.28
2023-03-02T06:52:21.015Z,23.55
2023-03-02T06:54:47.557Z,23.37
2023-03-02T06:57:15.366Z,23.27
2023-03-02T06:59:41.886Z,23.26
2023-03-02T07:02:10.371Z,23.31
2023-03-02T07:04:36.956Z,23.34
2023-03-02T07:07:04.180Z,23.30
2023-03-02T07:09:32.723Z,23.38
2023-03-02T07:11:59.805Z,23.37
2023-03-02T07:14:27.821Z,23.31
2023-03-02T07:16:54.617Z,23.36
2023-03-02T07:19:21.252Z,23.41
2023-03-02T07:21:47.835Z,22.94
2023-03-02T07:24:14.385Z,23.07
2023-03-02T07:26:40.961Z,23.26
2023-03-02T07:29:07.465Z,23.28
2023-03-02T07:31:35.642Z,23.50
2023-03-02T07:34:02.298Z,23.42
2023-03-02T07:36:28.926Z,23.34
2023-03-02T07:38:55.823Z,23.35
2023-03-02T07:41:22.499Z,23.48
2023-03-02T07:43:49.374Z,23.49
2023-03-02T07:46:16.082Z,23.45
2023-03-02T07:48:44.282Z,22.35
2023-03-02T07:51:10.886Z,21.75
2023-03-02T07:53:38.244Z,21.23
2023-03-02T07:56:07.688Z,21.21
2023-03-02T07:58:35.337Z,21.17
2023-03-02T08:01:02.028Z,21.20
2023-03-02T08:03:28.604Z,21.67
2023-03-02T08:05:56.495Z,21.07
2023-03-02T08:08:23.050Z,20.91
2023-03-02T08:10:49.754Z,21.54
2023-03-02T08:13:16.342Z,21.65
2023-03-02T08:15:42.992Z,21.51
2023-03-02T08:18:09.492Z,21.71
2023-03-02T08:20:37.335Z,21.28
2023-03-02T08:23:05.270Z,21.31
2023-03-02T08:25:32.016Z,20.98
2023-03-02T08:27:58.668Z,20.55
2023-03-02T08:30:25.217Z,20.81
2023-03-02T08:32:51.788Z,20.95
2023-03-02T08:35:18.552Z,20.43
2023-03-02T08:37:45.110Z,20.61
2023-03-02T08:40:13.295Z,20.81
2023-03-02T08:42:39.943Z,20.42
2023-03-02T08:45:08.345Z,20.31
2023-03-02T08:47:35.160Z,20.27
2023-03-02T08:50:02.039Z,20.31
2023-03-02T08:52:28.683Z,20.62
2023-03-02T08:54:55.564Z,20.83
2023-03-02T08:57:23.686Z,20.58
2023-03-02T08:59:50.203Z,20.47
2023-03-02T09:02:16.915Z,20.30
2023-03-02T09:04:43.812Z,20.49
2023-03-02T09:07:10.660Z,20.53
2023-03-02T09:09:37.237Z,20.72
2023-03-02T09:12:04.273Z,21.00
2023-03-02T09:14:32.297Z,20.88
2023-03-02T09:16:59.029Z,20.44
2023-03-02T09:19:25.791Z,20.43
2023-03-02T09:21:52.504Z,20.43
2023-03-02T09:24:19.109Z,20.62
2023-03-02T09:26:45.729Z,20.59
2023-03-02T09:29:13.095Z,20.64
2023-03-02T09:31:41.205Z,20.81
2023-03-02T09:34:07.914Z,20.55
2023-03-02T09:36:34.514Z,21.10
2023-03-02T09:39:01.092Z,21.85
2023-03-02T09:41:54.034Z,21.97
2023-03-02T09:44:40.467Z,21.01
2023-03-02T09:47:33.453Z,20.67
2023-03-02T09:50:11.708Z,20.44
2023-03-02T09:52:47.577Z,20.32
2023-03-02T09:55:17.123Z,20.22
2023-03-02T09:57:44.441Z,20.17
2023-03-02T10:00:21.833Z,20.20
2023-03-02T10:02:53.911Z,20.30
2023-03-02T10:05:23.828Z,20.55
2023-03-02T10:07:50.597Z,20.41
2023-03-02T10:10:24.790Z,20.18
2023-03-02T10:13:03.193Z,20.03
2023-03-02T10:15:36.049Z,20.09
2023-03-02T10:18:16.093Z,20.48
2023-03-02T10:20:49.157Z,20.16
2023-03-02T10:23:27.525Z,20.08
2023-03-02T10:26:00.424Z,20.25
2023-03-02T10:28:33.453Z,20.52
2023-03-02T10:31:08.752Z,20.46
2023-03-02T10:33:39.305Z,19.99
2023-03-02T10:36:20.678Z,20.07
2023-03-02T10:38:47.702Z,20.27
2023-03-02T10:41:21.441Z,20.07
2023-03-02T10:43:51.756Z,19.85
2023-03-02T10:46:18.724Z,19.72
2023-03-02T10:48:49.936Z,20.63
2023-03-02T10:51:27.564Z,21.27
2023-03-02T10:54:04.991Z,21.57
2023-03-02T10:56:32.631Z,21.79
2023-03-02T10:58:59.672Z,21.91
2023-03-02T11:01:26.154Z,21.83
2023-03-02T11:03:58.509Z,21.92
2023-03-02T11:06:25.282Z,22.15
2023-03-02T11:09:02.100Z,22.47
2023-03-02T11:11:28.630Z,22.43
2023-03-02T11:13:55.615Z,22.42
2023-03-02T11:16:25.574Z,22.28
2023-03-02T11:18:57.328Z,22.28
2023-03-02T11:21:33.513Z,22.39
2023-03-02T11:24:10.309Z,22.31
2023-03-02T11:26:42.616Z,22.58
2023-03-02T11:29:14.489Z,22.58
2023-03-02T11:31:46.385Z,22.45
2023-03-02T11:34:26.508Z,21.25
2023-03-02T11:37:03.151Z,20.72
2023-03-02T11:39:54.687Z,20.47
2023-03-02T11:42:26.810Z,21.07
2023-03-02T11:44:53.414Z,21.25
2023-03-02T11:47:21.386Z,20.94
2023-03-02T11:49:54.541Z,21.09
2023-03-02T11:52:26.580Z,21.18
2023-03-02T11:54:57.790Z,20.21
2023-03-02T11:57:29.552Z,19.99
2023-03-02T11:59:57.981Z,19.97
2023-03-02T12:02:25.479Z,20.11
2023-03-02T12:05:02.574Z,20.14
2023-03-02T12:07:30.702Z,20.39
2023-03-02T12:10:01.098Z,20.38
2023-03-02T12:12:40.051Z,20.43
2023-03-02T12:15:27.059Z,20.39
2023-03-02T12:17:53.865Z,20.21
2023-03-02T12:20:26.419Z,20.20
2023-03-02T12:23:08.136Z,20.16
2023-03-02T12:25:41.869Z,20.93
2023-03-02T12:28:25.708Z,21.00
2023-03-02T12:31:01.088Z,20.63
2023-03-02T12:33:27.646Z,20.77
2023-03-02T12:36:04.268Z,20.84
2023-03-02T12:38:34.865Z,20.68
2023-03-02T12:41:17.085Z,20.57
2023-03-02T12:43:51.430Z,20.76
2023-03-02T12:46:28.559Z,20.64
2023-03-02T12:49:11.740Z,20.75
2023-03-02T12:51:49.902Z,20.58
2023-03-02T12:54:20.000Z,21.02
2023-03-02T12:56:47.765Z,21.20
2023-03-02T12:59:23.969Z,20.97
2023-03-02T13:01:50.724Z,20.84
2023-03-02T13:04:22.387Z,20.88
2023-03-02T13:06:49.274Z,21.01
2023-03-02T13:09:16.306Z,21.07
2023-03-02T13:11:44.488Z,21.24
2023-03-02T13:14:22.196Z,21.01
2023-03-02T13:16:58.327Z,20.97
2023-03-02T13:19:26.347Z,20.80
2023-03-02T13:21:53.319Z,20.68
2023-03-02T13:24:29.096Z,20.74
2023-03-02T13:26:58.759Z,20.76
2023-03-02T13:29:27.280Z,20.83
2023-03-02T13:31:54.959Z,20.75
2023-03-02T13:34:22.839Z,20.75
2023-03-02T13:36:50.385Z,20.90
2023-03-02T13:39:21.590Z,20.71
2023-03-02T13:41:58.143Z,20.81
2023-03-02T13:44:27.779Z,20.90
2023-03-02T13:46:55.083Z,21.02
2023-03-02T13:49:28.679Z,20.94
2023-03-02T13:52:01.263Z,20.85
2023-03-02T13:54:30.544Z,20.85
2023-03-02T13:57:00.115Z,20.81
2023-03-02T13:59:27.281Z,20.90
2023-03-02T14:01:53.842Z,20.83
2023-03-02T14:04:22.901Z,21.06
2023-03-02T14:06:50.052Z,21.04
2023-03-02T14:09:16.787Z,20.92
2023-03-02T14:11:47.907Z,20.85
2023-03-02T14:14:17.565Z,20.97
2023-03-02T14:16:44.162Z,21.05
2023-03-02T14:19:12.965Z,21.00
2023-03-02T14:21:40.054Z,20.92
2023-03-02T14:24:07.214Z,21.23
2023-03-02T14:26:36.124Z,21.24
2023-03-02T14:29:07.513Z,21.20
2023-03-02T14:31:35.769Z,20.93
2023-03-02T14:34:02.518Z,20.62
2023-03-02T14:36:31.950Z,20.64
2023-03-02T14:39:01.883Z,20.67
2023-03-02T14:41:28.556Z,20.65
2023-03-02T14:43:55.513Z,20.78
2023-03-02T14:46:21.990Z,20.60
2023-03-02T14:48:49.940Z,20.62
2023-03-02T14:51:23.342Z,20.72
2023-03-02T14:53:51.591Z,20.63
2023-03-02T14:56:20.426Z,20.65
2023-03-02T14:58:47.077Z,20.44
2023-03-02T15:01:13.740Z,20.35
2023-03-02T15:03:40.437Z,20.34
2023-03-02T15:06:23.534Z,20.41
2023-03-02T15:08:50.150Z,20.34
2023-03-02T15:11:16.719Z,20.38
2023-03-02T15:13:45.431Z,20.51
2023-03-02T15:16:12.571Z,20.53
2023-03-02T15:18:39.518Z,20.68
2023-03-02T15:21:11.162Z,20.45
2023-03-02T15:23:37.799Z,20.53
2023-03-02T15:26:04.583Z,20.78
2023-03-02T15:28:31.102Z,20.71
2023-03-02T15:30:57.632Z,20.83
2023-03-02T15:33:24.225Z,21.35
2023-03-02T15:35:53.753Z,21.72
2023-03-02T15:38:23.077Z,21.54
2023-03-02T15:40:49.827Z,21.91
2023-03-02T15:43:16.382Z,21.60
2023-03-02T15:45:44.745Z,21.52
2023-03-02T15:48:13.526Z,21.64
2023-03-02T15:50:40.204Z,22.10
2023-03-02T15:53:07.252Z,21.95
2023-03-02T15:55:35.159Z,22.22
2023-03-02T15:58:01.768Z,21.93
2023-03-02T16:00:28.266Z,21.59
2023-03-02T16:02:54.865Z,21.78
2023-03-02T16:05:21.492Z,21.96
2023-03-02T16:07:48.059Z,21.96
2023-03-02T16:10:14.886Z,21.92
2023-03-02T16:12:42.873Z,21.93
2023-03-02T16:15:10.188Z,22.18
2023-03-02T16:17:36.779Z,22.17
2023-03-02T16:20:03.588Z,21.96
2023-03-02T16:22:30.132Z,22.44
2023-03-02T16:24:56.714Z,22.23
2023-03-02T16:27:23.272Z,22.58
2023-03-02T16:29:51.211Z,22.36
2023-03-02T16:32:19.091Z,22.02
2023-03-02T16:34:45.666Z,21.82
2023-03-02T16:37:12.185Z,22.15
2023-03-02T16:39:38.844Z,22.39
2023-03-02T16:42:05.548Z,22.59
2023-03-02T16:44:32.147Z,22.43
2023-03-02T16:46:59.986Z,21.97
2023-03-02T16:49:26.672Z,21.84
2023-03-02T16:51:57.120Z,22.00
2023-03-02T16:54:24.688Z,21.90
2023-03-02T16:56:51.337Z,21.84
2023-03-02T16:59:18.031Z,21.89
2023-03-02T17:01:44.918Z,21.70
2023-03-02T17:04:13.045Z,21.73
2023-03-02T17:06:59.577Z,21.72
2023-03-02T17:09:27.188Z,21.61
2023-03-02T17:11:53.798Z,21.40
2023-03-02T17:14:20.570Z,21.22
2023-03-02T17:16:47.299Z,21.15
2023-03-02T17:19:15.518Z,21.17
2023-03-02T17:21:42.580Z,21.26
2023-03-02T17:24:09.908Z,21.14
2023-03-02T17:26:36.636Z,21.38
2023-03-02T17:29:03.373Z,21.34
2023-03-02T17:31:29.981Z,21.41
2023-03-02T17:33:57.521Z,21.50
2023-03-02T17:36:25.640Z,21.70
2023-03-02T17:38:52.201Z,21.34
2023-03-02T17:41:18.794Z,21.13
2023-03-02T17:43:45.344Z,21.62
2023-03-02T17:46:15.406Z,21.19
2023-03-02T17:48:43.018Z,20.94
2023-03-02T17:51:09.965Z,20.88
2023-03-02T17:53:38.005Z,20.78
2023-03-02T17:56:05.044Z,20.76
2023-03-02T17:58:44.281Z,20.84
2023-03-02T18:01:13.421Z,21.10
2023-03-02T18:03:40.293Z,20.79
2023-03-02T18:06:07.537Z,20.72
2023-03-02T18:08:34.057Z,20.82
2023-03-02T18:11:01.927Z,21.01
2023-03-02T18:13:28.523Z,20.95
2023-03-02T18:15:55.342Z,20.73
2023-03-02T18:18:22.400Z,20.70
2023-03-02T18:20:49.084Z,20.72
2023-03-02T18:23:15.651Z,20.67
2023-03-02T18:25:42.213Z,20.72
2023-03-02T18:28:10.097Z,20.92
2023-03-02T18:30:42.480Z,20.84
2023-03-02T18:33:09.505Z,20.85
2023-03-02T18:35:36.065Z,20.88
2023-03-02T18:38:02.750Z,20.78
2023-03-02T18:40:29.338Z,20.91
2023-03-02T18:42:55.864Z,20.87
2023-03-02T18:45:25.566Z,20.93
2023-03-02T18:47:52.120Z,20.97
2023-03-02T18:50:19.708Z,21.07
2023-03-02T18:52:46.268Z,21.00
2023-03-02T18:55:12.906Z,21.13
2023-03-02T18:57:39.691Z,20.69
2023-03-02T19:00:08.752Z,20.78
2023-03-02T19:02:36.543Z,20.88
2023-03-02T19:05:03.219Z,21.10
2023-03-02T19:07:29.812Z,20.72
2023-03-02T19:09:56.405Z,20.65
2023-03-02T19:12:22.929Z,20.68
2023-03-02T19:14:49.507Z,20.67
2023-03-02T19:17:16.057Z,20.46
2023-03-02T19:19:44.005Z,20.76
2023-03-02T19:22:10.551Z,21.02
2023-03-02T19:24:37.127Z,20.70
2023-03-02T19:27:03.772Z,20.58
2023-03-02T19:29:30.380Z,20.50
2023-03-02T19:31:56.997Z,20.39
2023-03-02T19:34:23.933Z,20.44
2023-03-02T19:36:51.741Z,20.54
2023-03-02T19:39:18.262Z,20.61
2023-03-02T19:41:44.897Z,20.49
2023-03-02T19:44:11.366Z,20.44
2023-03-02T19:46:37.863Z,20.44
2023-03-02T19:49:04.802Z,20.46
2023-03-02T19:51:31.568Z,20.47
2023-03-02T19:53:59.408Z,20.47
2023-03-02T19:56:26.178Z,20.40
2023-03-02T19:58:52.698Z,20.43
2023-03-02T20:01:22.065Z,20.33
2023-03-02T20:03:48.877Z,20.36
2023-03-02T20:06:15.593Z,20.37
2023-03-02T20:08:42.219Z,20.31
2023-03-02T20:11:10.141Z,20.38
2023-03-02T20:13:37.140Z,20.43
2023-03-02T20:16:04.025Z,20.44
2023-03-02T20:18:30.571Z,20.51
2023-03-02T20:20:57.307Z,20.27
2023-03-02T20:23:23.940Z,20.32
2023-03-02T20:25:50.649Z,20.41
2023-03-02T20:28:21.761Z,20.33
2023-03-02T20:30:50.666Z,20.25
2023-03-02T20:33:18.217Z,20.25
2023-03-02T20:35:45.990Z,20.56
2023-03-02T20:38:16.013Z,20.38
2023-03-02T20:40:43.623Z,20.43
2023-03-02T20:43:10.347Z,20.47
2023-03-02T20:45:38.816Z,20.35
2023-03-02T20:48:05.662Z,20.39
2023-03-02T20:50:33.384Z,20.26
2023-03-02T20:53:00.565Z,20.27
2023-03-02T20:55:27.549Z,20.21
2023-03-02T20:57:55.230Z,20.52
2023-03-02T21:00:27.382Z,20.45
2023-03-02T21:02:56.154Z,20.50
2023-03-02T21:05:22.972Z,20.28
2023-03-02T21:07:50.271Z,20.33
2023-03-02T21:10:19.877Z,20.58
2023-03-02T21:12:46.625Z,20.34
2023-03-02T21:15:13.302Z,20.23
2023-03-02T21:17:40.045Z,20.38
2023-03-02T21:20:09.255Z,20.49
2023-03-02T21:22:35.776Z,20.54
2023-03-02T21:25:02.262Z,20.19
2023-03-02T21:27:28.936Z,20.36
2023-03-02T21:29:55.507Z,20.20
2023-03-02T21:32:22.109Z,20.25
2023-03-02T21:34:48.746Z,20.33
2023-03-02T21:37:16.589Z,20.28
2023-03-02T21:39:43.117Z,20.30
2023-03-02T21:42:09.843Z,20.32
2023-03-02T21:44:36.524Z,20.16
2023-03-02T21:47:03.580Z,20.26
2023-03-02T21:49:30.275Z,20.77
2023-03-02T21:51:56.842Z,20.45
2023-03-02T21:54:24.756Z,20.27
2023-03-02T21:56:51.326Z,20.62
2023-03-02T21:59:17.978Z,20.32
2023-03-02T22:01:44.684Z,20.21
2023-03-02T22:04:11.681Z,20.31
2023-03-02T22:06:38.209Z,20.25
2023-03-02T22:09:05.200Z,20.19
2023-03-02T22:11:34.810Z,20.15
2023-03-02T22:14:07.506Z,20.14
2023-03-02T22:16:36.992Z,20.11
2023-03-02T22:19:17.661Z,20.19
2023-03-02T22:21:47.754Z,20.18
2023-03-02T22:24:20.282Z,20.05
2023-03-02T22:26:53.380Z,20.05
2023-03-02T22:29:23.767Z,20.07
2023-03-02T22:31:52.088Z,20.04
2023-03-02T22:34:23.419Z,20.15
2023-03-02T22:36:49.939Z,20.20
2023-03-02T22:39:20.402Z,20.08
2023-03-02T22:41:48.230Z,20.04
2023-03-02T22:44:14.712Z,20.14
2023-03-02T22:46:41.422Z,20.28
2023-03-02T22:49:16.283Z,20.17
2023-03-02T22:51:43.328Z,20.26
2023-03-02T22:54:20.024Z,20.11
2023-03-02T22:56:50.216Z,20.15
2023-03-02T22:59:21.516Z,20.07
2023-03-02T23:01:48.636Z,20.10
2023-03-02T23:04:20.361Z,20.16
2023-03-02T23:06:49.402Z,20.34
2023-03-02T23:09:18.749Z,20.10
2023-03-02T23:11:45.310Z,20.15
2023-03-02T23:14:20.731Z,20.12
2023-03-02T23:16:53.083Z,20.03
2023-03-02T23:19:20.045Z,20.18
2023-03-02T23:21:48.108Z,20.17
2023-03-02T23:24:15.399Z,20.01
2023-03-02T23:26:41.978Z,19.95
2023-03-02T23:29:08.683Z,20.08
2023-03-02T23:31:36.477Z,20.12
2023-03-02T23:34:03.073Z,20.01
2023-03-02T23:36:29.645Z,20.02
2023-03-02T23:38:56.436Z,20.06
2023-03-02T23:41:23.080Z,20.00
2023-03-02T23:43:49.756Z,20.00
2023-03-02T23:46:16.314Z,19.95
2023-03-02T23:48:44.681Z,19.98
2023-03-02T23:51:11.229Z,20.08
2023-03-02T23:53:37.745Z,20.12
2023-03-02T23:56:04.789Z,19.98
2023-03-02T23:58:31.443Z,19.96
